Ana Sayfa
METAR-TAF:

METAR-TAF

Havaalanları :

Bole Uluslararası Havalimanı

Addis Ababa, Etiyopya

Enlem: 08-59N, Boylam: 038-48E, yükseklik: 2355 m

Güncel hava durumu gözlemi

Rapor saat 00:00 UTC de 40 dakika önce yapıldı.
Rüzgar kuzey/kuzeybatıdan 4 kt
Sıcaklık 12°C
Nem 88%
Basınç 1025 hPa
Görüş mesafesi 10 km veya daha fazla
2500 ft yükseklikte parçalı bulutlu

METAR: HAAB 110000Z 33004KT 9999 SCT025 12/10 Q1025

Saat: 03:40 (00:40 UTC)

Tahmin

Rapor saat 21:30 UTC de 3 saat ve 10 dakika önce yapıldı.
Ayın 11'si saat 00 UTC'den ayın 12'si saat 06 UTC'ye kadar geçerli Tahmin
Rüzgar doğudan 6 kt
Görüş mesafesi 10 km veya daha fazla
2600 ft yükseklikte parçalı çok bulutlu
9000 ft yükseklikte az bulutlu
Dönüşüyor
ayın 11'si saat 04 UTC'den ayın 11'si saat 08 UTC'ye kadar
hafif sağanak yağmurlar

TAF: HAAB 102130Z 1100/1206 09006KT 9999 BKN026 FEW090 BECMG 1104/1108 7000M -SHRA

4.000'den fazla havaalanı için hava durumu gözlemleri ve tahminleri (METAR ve TAF raporları).

Kullanılabilir istasyonlar harita üzerinde sarı ve kırmızı noktalarla gösterilir.

İstasyonun adını görmek için fareyi noktanın üzerinde gezdirin.

Sonrasında hava gözlem ve tahminlerini görmek için tıklayın.

Haritayı değiştirmek için: yaklaştırmak için siyah artı işaretli yeşil düğmeye ve uzaklaştırmak için de eksi işaretli düğmeye hızla tıklayın; bitişik haritalar için yeşil okları kullanın.


METAR-TAF: